createdAt,value
2022-10-05T00:00:43.182Z,9.43
2022-10-05T00:03:10.710Z,8.73
2022-10-05T00:05:38.262Z,9.50
2022-10-05T00:08:08.880Z,8.77
2022-10-05T00:10:36.443Z,7.67
2022-10-05T00:13:04.696Z,7.30
2022-10-05T00:15:32.271Z,8.73
2022-10-05T00:17:59.834Z,7.70
2022-10-05T00:20:28.098Z,11.77
2022-10-05T00:22:58.623Z,6.27
2022-10-05T00:25:26.152Z,4.73
2022-10-05T00:27:54.458Z,4.93
2022-10-05T00:30:22.757Z,5.93
2022-10-05T00:32:50.291Z,5.27
2022-10-05T00:35:17.816Z,9.80
2022-10-05T00:37:45.361Z,6.33
2022-10-05T00:40:30.845Z,8.70
2022-10-05T00:43:04.387Z,11.88
2022-10-05T00:45:31.981Z,10.77
2022-10-05T00:48:23.548Z,6.57
2022-10-05T00:51:09.614Z,8.57
2022-10-05T00:53:42.882Z,11.13
2022-10-05T00:56:16.410Z,10.93
2022-10-05T00:59:05.016Z,14.13
2022-10-05T01:01:32.572Z,14.38
2022-10-05T01:04:11.979Z,21.77
2022-10-05T01:06:43.143Z,14.60
2022-10-05T01:09:16.669Z,48.57
2022-10-05T01:11:49.904Z,71.77
2022-10-05T01:14:26.124Z,50.40
2022-10-05T01:16:53.750Z,68.40
2022-10-05T01:19:27.121Z,52.90
2022-10-05T01:21:55.639Z,22.87
2022-10-05T01:24:31.968Z,22.27
2022-10-05T01:27:05.232Z,22.03
2022-10-05T01:29:59.897Z,12.40
2022-10-05T01:32:32.933Z,14.20
2022-10-05T01:35:09.564Z,12.83
2022-10-05T01:37:56.573Z,18.00
2022-10-05T01:40:44.137Z,13.53
2022-10-05T01:43:20.730Z,13.97
2022-10-05T01:46:12.382Z,16.35
2022-10-05T01:48:48.892Z,15.30
2022-10-05T01:51:28.469Z,16.50
2022-10-05T01:54:08.873Z,11.93
2022-10-05T01:56:57.498Z,12.50
2022-10-05T01:59:43.517Z,10.63
2022-10-05T02:02:11.105Z,22.07
2022-10-05T02:07:06.886Z,79.13
2022-10-05T02:09:34.425Z,48.43
2022-10-05T02:12:02.004Z,40.57
2022-10-05T02:14:32.930Z,16.13
2022-10-05T02:17:01.219Z,32.10
2022-10-05T02:19:34.780Z,68.60
2022-10-05T02:22:14.165Z,55.30
2022-10-05T02:24:41.695Z,37.10
2022-10-05T02:27:09.987Z,85.53
2022-10-05T02:29:37.618Z,200.43
2022-10-05T02:32:05.136Z,147.47
2022-10-05T02:34:38.676Z,104.93
2022-10-05T02:37:24.456Z,99.47
2022-10-05T02:39:51.980Z,60.88
2022-10-05T02:42:22.187Z,24.03
2022-10-05T02:44:58.531Z,25.83
2022-10-05T02:47:29.787Z,20.77
2022-10-05T02:50:04.156Z,18.10
2022-10-05T02:52:43.791Z,17.03
2022-10-05T02:55:20.070Z,19.10
2022-10-05T02:58:02.818Z,19.07
2022-10-05T03:00:31.139Z,24.60
2022-10-05T03:03:07.507Z,24.33
2022-10-05T03:05:59.419Z,36.03
2022-10-05T03:08:45.219Z,19.83
2022-10-05T03:11:15.658Z,30.33
2022-10-05T03:14:01.882Z,32.77
2022-10-05T03:16:35.205Z,38.95
2022-10-05T03:19:14.781Z,36.00
2022-10-05T03:21:57.096Z,22.37
2022-10-05T03:24:36.750Z,30.73
2022-10-05T03:27:22.520Z,39.40
2022-10-05T03:29:53.031Z,30.40
2022-10-05T03:32:23.429Z,38.33
2022-10-05T03:34:54.203Z,33.33
2022-10-05T03:37:21.729Z,21.77
2022-10-05T03:39:52.275Z,45.03
2022-10-05T03:42:25.582Z,39.37
2022-10-05T03:45:20.812Z,35.17
2022-10-05T03:48:09.479Z,26.33
2022-10-05T03:50:48.669Z,31.83
2022-10-05T03:53:16.236Z,33.77
2022-10-05T03:55:58.617Z,20.03
2022-10-05T03:58:41.104Z,41.50
2022-10-05T04:01:09.443Z,19.23
2022-10-05T04:03:39.811Z,26.80
2022-10-05T04:06:13.885Z,25.80
2022-10-05T04:08:58.945Z,20.50
2022-10-05T04:11:26.489Z,18.93
2022-10-05T04:14:11.688Z,18.83
2022-10-05T04:16:48.080Z,20.17
2022-10-05T04:19:15.865Z,21.00
2022-10-05T04:21:58.238Z,24.23
2022-10-05T04:24:31.404Z,22.10
2022-10-05T04:27:04.955Z,20.00
2022-10-05T04:29:48.353Z,18.23
2022-10-05T04:32:15.977Z,21.23
2022-10-05T04:34:55.910Z,21.35
2022-10-05T04:37:40.309Z,19.73
2022-10-05T04:40:05.942Z,21.40
2022-10-05T04:42:33.496Z,20.83
2022-10-05T04:45:10.180Z,20.50
2022-10-05T04:47:59.612Z,18.93
2022-10-05T04:50:44.988Z,21.67
2022-10-05T04:53:15.161Z,20.30
2022-10-05T04:55:49.154Z,18.10
2022-10-05T04:58:20.224Z,17.00
2022-10-05T05:01:06.065Z,14.10
2022-10-05T05:03:45.658Z,20.53
2022-10-05T05:06:22.291Z,18.87
2022-10-05T05:09:04.703Z,16.93
2022-10-05T05:11:53.299Z,15.70
2022-10-05T05:14:45.383Z,16.87
2022-10-05T05:17:33.996Z,19.07
2022-10-05T05:20:28.825Z,17.07
2022-10-05T05:23:14.427Z,16.30
2022-10-05T05:25:57.651Z,18.05
2022-10-05T05:28:43.013Z,15.63
2022-10-05T05:31:10.642Z,13.47
2022-10-05T05:33:44.620Z,13.40
2022-10-05T05:36:30.518Z,17.27
2022-10-05T05:39:07.081Z,12.10
2022-10-05T05:41:37.865Z,13.80
2022-10-05T05:44:11.190Z,15.70
2022-10-05T05:49:09.333Z,12.63
2022-10-05T05:51:48.563Z,14.82
2022-10-05T05:54:19.072Z,17.90
2022-10-05T05:56:58.559Z,22.30
2022-10-05T05:59:31.510Z,19.23
2022-10-05T06:01:59.140Z,20.37
2022-10-05T06:04:29.514Z,17.50
2022-10-05T06:06:57.097Z,18.93
2022-10-05T06:09:30.588Z,28.93
2022-10-05T06:11:58.124Z,27.43
2022-10-05T06:14:44.111Z,25.40
2022-10-05T06:17:14.541Z,18.13
2022-10-05T06:19:42.085Z,15.17
2022-10-05T06:22:15.746Z,15.00
2022-10-05T06:25:14.204Z,19.77
2022-10-05T06:28:08.850Z,16.23
2022-10-05T06:30:57.274Z,15.37
2022-10-05T06:33:31.396Z,14.53
2022-10-05T06:36:05.756Z,14.87
2022-10-05T06:38:42.289Z,15.20
2022-10-05T06:41:34.085Z,14.60
2022-10-05T06:44:01.668Z,15.57
2022-10-05T06:46:39.133Z,17.58
2022-10-05T06:49:31.083Z,16.57
2022-10-05T06:52:05.271Z,22.58
2022-10-05T06:54:41.472Z,18.00
2022-10-05T06:57:09.764Z,16.15
2022-10-05T06:59:46.574Z,13.70
2022-10-05T07:02:17.012Z,16.23
2022-10-05T07:04:47.523Z,14.20
2022-10-05T07:07:33.449Z,15.37
2022-10-05T07:10:19.701Z,16.17
2022-10-05T07:12:50.170Z,18.20
2022-10-05T07:15:45.028Z,16.17
2022-10-05T07:18:27.747Z,20.02
2022-10-05T07:21:32.352Z,17.17
2022-10-05T07:24:08.777Z,20.03
2022-10-05T07:26:41.767Z,25.17
2022-10-05T07:29:33.995Z,26.97
2022-10-05T07:32:22.748Z,31.40
2022-10-05T07:35:05.288Z,32.63
2022-10-05T07:37:51.777Z,38.47
2022-10-05T07:40:24.811Z,38.37
2022-10-05T07:43:00.975Z,38.93
2022-10-05T07:45:47.131Z,38.20
2022-10-05T07:48:23.821Z,37.10
2022-10-05T07:50:57.314Z,37.60
2022-10-05T07:53:30.609Z,36.00
2022-10-05T07:56:03.637Z,33.63
2022-10-05T07:58:39.955Z,37.23
2022-10-05T08:01:14.007Z,29.97
2022-10-05T08:04:05.606Z,27.77
2022-10-05T08:06:45.271Z,32.07
2022-10-05T08:09:30.382Z,35.22
2022-10-05T08:12:25.494Z,32.30
2022-10-05T08:14:53.828Z,29.00
2022-10-05T08:17:30.086Z,24.03
2022-10-05T08:20:15.916Z,26.33
2022-10-05T08:22:43.492Z,18.37
2022-10-05T08:25:11.782Z,15.83
2022-10-05T08:27:51.292Z,18.27
2022-10-05T08:30:18.834Z,13.10
2022-10-05T08:33:08.129Z,16.03
2022-10-05T08:35:36.442Z,13.82
2022-10-05T08:38:04.015Z,15.83
2022-10-05T08:40:32.319Z,11.73
2022-10-05T08:43:02.249Z,15.30
2022-10-05T08:45:32.745Z,11.32
2022-10-05T08:48:05.783Z,15.33
2022-10-05T08:50:42.730Z,9.17
2022-10-05T08:53:28.845Z,9.67
2022-10-05T08:56:26.370Z,10.32
2022-10-05T08:58:49.652Z,9.87
2022-10-05T09:01:20.173Z,8.33
2022-10-05T09:04:12.881Z,9.10
2022-10-05T09:06:55.304Z,10.03
2022-10-05T09:09:41.576Z,8.10
2022-10-05T09:12:09.111Z,9.07
2022-10-05T09:14:37.424Z,8.63
2022-10-05T09:17:17.001Z,8.67
2022-10-05T09:20:09.184Z,6.50
2022-10-05T09:22:54.811Z,7.40
2022-10-05T09:25:37.588Z,6.83
2022-10-05T09:28:06.174Z,8.03
2022-10-05T09:30:33.622Z,10.07
2022-10-05T09:33:03.799Z,9.30
2022-10-05T09:35:49.717Z,9.27
2022-10-05T09:38:55.010Z,9.50
2022-10-05T09:41:37.736Z,10.83
2022-10-05T09:44:32.535Z,18.00
2022-10-05T09:47:23.948Z,11.90
2022-10-05T09:50:01.081Z,15.13
2022-10-05T09:52:34.700Z,16.77
2022-10-05T09:55:20.135Z,17.10
2022-10-05T09:57:57.547Z,15.73
2022-10-05T10:00:32.959Z,14.47
2022-10-05T10:03:28.341Z,18.23
2022-10-05T10:05:56.602Z,20.55
2022-10-05T10:08:33.018Z,14.07
2022-10-05T10:11:15.676Z,15.13
2022-10-05T10:14:04.871Z,19.50
2022-10-05T10:16:38.343Z,18.07
2022-10-05T10:19:17.941Z,18.43
2022-10-05T10:22:06.487Z,15.70
2022-10-05T10:24:45.767Z,21.17
2022-10-05T10:27:16.483Z,21.60
2022-10-05T10:30:02.873Z,21.00
2022-10-05T10:32:52.582Z,20.70
2022-10-05T10:35:35.126Z,21.93
2022-10-05T10:38:24.021Z,22.63
2022-10-05T10:41:00.231Z,19.20
2022-10-05T10:43:39.760Z,20.20
2022-10-05T10:46:16.357Z,27.10
2022-10-05T10:48:55.525Z,20.63
2022-10-05T10:51:41.797Z,21.43
2022-10-05T10:54:26.986Z,22.73
2022-10-05T10:57:03.618Z,25.30
2022-10-05T10:59:52.736Z,22.80
2022-10-05T11:02:42.668Z,19.80
2022-10-05T11:05:28.401Z,19.83
2022-10-05T11:08:02.149Z,22.90
2022-10-05T11:10:37.885Z,19.43
2022-10-05T11:13:38.877Z,17.40
2022-10-05T11:16:14.650Z,19.90
2022-10-05T11:18:46.709Z,19.55
2022-10-05T11:21:17.768Z,15.77
2022-10-05T11:23:48.876Z,16.03
2022-10-05T11:26:43.783Z,13.83
2022-10-05T11:29:29.848Z,13.88
2022-10-05T11:32:15.825Z,12.33
2022-10-05T11:35:04.420Z,12.50
2022-10-05T11:37:52.632Z,19.67
2022-10-05T11:40:31.430Z,12.07
2022-10-05T11:42:59.014Z,9.83
2022-10-05T11:45:26.552Z,11.80
2022-10-05T11:48:05.969Z,12.63
2022-10-05T11:50:39.116Z,9.97
2022-10-05T11:53:24.627Z,10.07
2022-10-05T11:55:57.965Z,8.38
2022-10-05T11:58:34.724Z,8.93
2022-10-05T12:01:30.360Z,12.30
2022-10-05T12:04:28.191Z,6.67
2022-10-05T12:07:15.015Z,7.57
2022-10-05T12:10:15.686Z,8.63
2022-10-05T12:12:45.717Z,6.73
2022-10-05T12:15:22.344Z,8.10
2022-10-05T12:18:20.477Z,9.43
2022-10-05T12:20:50.570Z,6.03
2022-10-05T12:23:20.872Z,7.25
2022-10-05T12:26:12.644Z,5.57
2022-10-05T12:28:40.174Z,8.47
2022-10-05T12:31:29.151Z,7.97
2022-10-05T12:34:00.340Z,10.97
2022-10-05T12:36:59.606Z,9.50
2022-10-05T12:39:12.691Z,7.10
2022-10-05T12:41:42.786Z,5.07
2022-10-05T12:44:16.001Z,6.07
2022-10-05T12:47:01.649Z,6.00
2022-10-05T12:49:48.171Z,8.93
2022-10-05T12:52:36.925Z,7.30
2022-10-05T12:55:07.180Z,6.57
2022-10-05T12:57:43.612Z,9.03
2022-10-05T13:00:21.879Z,6.80
2022-10-05T13:02:47.622Z,7.70
2022-10-05T13:05:18.967Z,4.60
2022-10-05T13:07:50.076Z,6.03
2022-10-05T13:10:23.342Z,5.40
2022-10-05T13:13:05.797Z,3.43
2022-10-05T13:15:33.318Z,4.37
2022-10-05T13:18:09.667Z,3.90
2022-10-05T13:20:42.683Z,3.60
2022-10-05T13:23:13.124Z,3.93
2022-10-05T13:25:46.438Z,2.80
2022-10-05T13:28:16.704Z,2.50
2022-10-05T13:31:12.060Z,2.40
2022-10-05T13:34:06.682Z,2.93
2022-10-05T13:36:40.095Z,1.67
2022-10-05T13:39:13.074Z,3.17
2022-10-05T13:41:55.748Z,1.83
2022-10-05T13:44:23.308Z,3.63
2022-10-05T13:46:53.373Z,4.60
2022-10-05T13:49:20.907Z,2.00
2022-10-05T13:52:23.001Z,1.93
2022-10-05T13:55:11.647Z,2.93
2022-10-05T13:57:39.230Z,2.17
2022-10-05T14:00:06.761Z,3.17
2022-10-05T14:02:34.280Z,6.30
2022-10-05T14:05:01.844Z,3.07
2022-10-05T14:07:32.294Z,1.57
2022-10-05T14:10:00.587Z,5.60
2022-10-05T14:12:28.151Z,4.53
2022-10-05T14:14:55.695Z,2.40
2022-10-05T14:17:41.801Z,1.30
2022-10-05T14:20:30.376Z,1.50
2022-10-05T14:23:00.692Z,2.47
2022-10-05T14:25:28.221Z,2.87
2022-10-05T14:28:12.002Z,5.60
2022-10-05T14:30:39.456Z,3.73
2022-10-05T14:33:06.974Z,3.73
2022-10-05T14:35:46.787Z,4.80
2022-10-05T14:38:26.228Z,3.80
2022-10-05T14:41:02.603Z,2.50
2022-10-05T14:43:30.129Z,3.28
2022-10-05T14:46:00.902Z,4.50
2022-10-05T14:48:28.279Z,2.10
2022-10-05T14:50:55.803Z,2.37
2022-10-05T14:53:23.338Z,4.07
2022-10-05T14:55:56.908Z,2.93
2022-10-05T14:58:42.127Z,3.10
2022-10-05T15:01:28.045Z,6.10
2022-10-05T15:04:07.385Z,2.58
2022-10-05T15:06:59.497Z,6.40
2022-10-05T15:09:24.775Z,4.10
2022-10-05T15:11:57.785Z,3.77
2022-10-05T15:14:31.118Z,3.23
2022-10-05T15:16:58.693Z,3.90
2022-10-05T15:19:29.880Z,5.43
2022-10-05T15:22:16.085Z,2.77
2022-10-05T15:24:46.493Z,2.53
2022-10-05T15:27:14.018Z,3.87
2022-10-05T15:30:02.761Z,2.90
2022-10-05T15:32:42.088Z,5.40
2022-10-05T15:35:21.581Z,2.83
2022-10-05T15:38:07.143Z,2.47
2022-10-05T15:40:37.415Z,4.60
2022-10-05T15:43:14.628Z,3.60
2022-10-05T15:45:44.775Z,5.30
2022-10-05T15:48:24.848Z,3.00
2022-10-05T15:50:54.916Z,4.00
2022-10-05T15:53:22.432Z,3.17
2022-10-05T15:56:04.509Z,3.53
2022-10-05T15:58:43.968Z,4.03
2022-10-05T16:01:20.362Z,4.40
2022-10-05T16:04:02.579Z,5.47
2022-10-05T16:06:57.358Z,3.73
2022-10-05T16:09:34.296Z,3.30
2022-10-05T16:12:10.160Z,4.80
2022-10-05T16:14:46.202Z,3.67
2022-10-05T16:17:28.567Z,3.43
2022-10-05T16:20:01.658Z,4.12
2022-10-05T16:22:43.440Z,4.37
2022-10-05T16:25:14.259Z,3.67
2022-10-05T16:27:48.550Z,4.82
2022-10-05T16:30:16.078Z,5.73
2022-10-05T16:32:43.598Z,4.10
2022-10-05T16:35:23.642Z,5.00
2022-10-05T16:38:03.450Z,2.80
2022-10-05T16:40:52.048Z,3.13
2022-10-05T16:43:32.410Z,7.20
2022-10-05T16:46:12.411Z,3.90
2022-10-05T16:48:49.112Z,2.43
2022-10-05T16:51:28.579Z,2.73
2022-10-05T16:54:11.692Z,3.03
2022-10-05T16:56:42.622Z,2.27
2022-10-05T16:59:31.337Z,8.13
2022-10-05T17:02:20.380Z,1.83
2022-10-05T17:05:00.220Z,1.37
2022-10-05T17:07:58.297Z,2.97
2022-10-05T17:10:53.272Z,3.27
2022-10-05T17:13:26.873Z,5.77
2022-10-05T17:15:58.327Z,2.20
2022-10-05T17:18:31.304Z,2.30
2022-10-05T17:21:04.393Z,4.07
2022-10-05T17:23:37.514Z,2.30
2022-10-05T17:26:10.877Z,3.30
2022-10-05T17:29:00.087Z,3.53
2022-10-05T17:31:27.683Z,3.67
2022-10-05T17:34:07.605Z,3.30
2022-10-05T17:36:41.106Z,4.70
2022-10-05T17:39:17.446Z,3.10
2022-10-05T17:41:44.981Z,4.03
2022-10-05T17:44:13.284Z,3.73
2022-10-05T17:46:40.913Z,7.87
2022-10-05T17:49:17.194Z,3.57
2022-10-05T17:52:03.572Z,7.03
2022-10-05T17:55:04.381Z,2.67
2022-10-05T17:57:32.337Z,5.87
2022-10-05T17:59:59.926Z,4.10
2022-10-05T18:02:36.692Z,3.83
2022-10-05T18:05:07.603Z,4.87
2022-10-05T18:07:35.157Z,6.30
2022-10-05T18:10:17.185Z,5.00
2022-10-05T18:12:50.174Z,8.33
2022-10-05T18:15:17.699Z,5.83
2022-10-05T18:17:47.726Z,4.87
2022-10-05T18:20:30.580Z,6.33
2022-10-05T18:23:04.289Z,6.47
2022-10-05T18:25:40.478Z,5.57
2022-10-05T18:28:20.090Z,4.43
2022-10-05T18:30:59.582Z,4.60
2022-10-05T18:33:44.987Z,7.60
2022-10-05T18:36:43.155Z,5.30
2022-10-05T18:39:13.624Z,10.97
2022-10-05T18:42:08.639Z,10.60
2022-10-05T18:44:37.031Z,17.97
2022-10-05T18:47:04.516Z,7.23
2022-10-05T18:49:37.950Z,11.13
2022-10-05T18:52:11.833Z,7.50
2022-10-05T18:54:57.594Z,8.30
2022-10-05T18:57:42.743Z,12.87
2022-10-05T19:00:22.232Z,9.17
2022-10-05T19:02:58.391Z,8.33
2022-10-05T19:05:53.200Z,10.93
2022-10-05T19:08:41.834Z,6.87
2022-10-05T19:11:11.854Z,6.57
2022-10-05T19:14:00.519Z,8.83
2022-10-05T19:16:36.892Z,7.30
2022-10-05T19:19:10.170Z,6.30
2022-10-05T19:22:04.976Z,5.62
2022-10-05T19:25:09.739Z,7.40
2022-10-05T19:27:54.421Z,4.97
2022-10-05T19:30:38.295Z,6.83
2022-10-05T19:33:27.028Z,5.50
2022-10-05T19:36:25.253Z,3.63
2022-10-05T19:39:11.407Z,5.50
2022-10-05T19:41:47.478Z,5.75
2022-10-05T19:44:20.478Z,5.77
2022-10-05T19:46:54.077Z,8.63
2022-10-05T19:49:42.803Z,5.30
2022-10-05T19:52:13.095Z,6.07
2022-10-05T19:54:41.386Z,8.50
2022-10-05T19:57:08.921Z,2.23
2022-10-05T19:59:36.475Z,5.63
2022-10-05T20:02:04.069Z,6.37
2022-10-05T20:04:43.852Z,5.80
2022-10-05T20:07:13.799Z,5.37
2022-10-05T20:09:56.350Z,3.17
2022-10-05T20:12:23.880Z,4.17
2022-10-05T20:15:26.185Z,5.53
2022-10-05T20:18:12.083Z,6.53
2022-10-05T20:20:39.727Z,8.60
2022-10-05T20:23:22.375Z,7.43
2022-10-05T20:25:50.314Z,5.83
2022-10-05T20:28:17.964Z,3.80
2022-10-05T20:30:45.393Z,5.00
2022-10-05T20:33:13.736Z,9.03
2022-10-05T20:35:41.270Z,3.77
2022-10-05T20:38:08.796Z,7.53
2022-10-05T20:40:37.147Z,9.40
2022-10-05T20:43:04.674Z,6.80
2022-10-05T20:45:32.189Z,5.63
2022-10-05T20:48:00.530Z,9.37
2022-10-05T20:50:28.054Z,6.50
2022-10-05T20:52:55.569Z,4.73
2022-10-05T20:55:23.165Z,7.10
2022-10-05T20:57:50.697Z,6.13
2022-10-05T21:00:18.990Z,11.30
2022-10-05T21:02:46.575Z,9.23
2022-10-05T21:05:14.194Z,8.93
2022-10-05T21:07:42.402Z,16.43
2022-10-05T21:10:09.985Z,15.00
2022-10-05T21:12:37.501Z,12.83
2022-10-05T21:15:05.183Z,17.17
2022-10-05T21:17:32.767Z,12.13
2022-10-05T21:20:00.303Z,9.17
2022-10-05T21:22:27.856Z,10.37
2022-10-05T21:24:55.408Z,12.53
2022-10-05T21:27:23.706Z,8.03
2022-10-05T21:29:51.239Z,12.07
2022-10-05T21:32:18.823Z,15.33
2022-10-05T21:34:46.348Z,11.57
2022-10-05T21:37:14.652Z,17.77
2022-10-05T21:39:42.225Z,12.47
2022-10-05T21:42:09.751Z,11.80
2022-10-05T21:44:37.285Z,15.00
2022-10-05T21:47:04.898Z,10.77
2022-10-05T21:49:32.426Z,7.73
2022-10-05T21:52:00.715Z,10.10
2022-10-05T21:54:28.310Z,10.40
2022-10-05T21:56:55.878Z,9.57
2022-10-05T21:59:23.399Z,10.70
2022-10-05T22:01:50.963Z,8.37
2022-10-05T22:04:18.507Z,7.70
2022-10-05T22:06:46.042Z,10.07
2022-10-05T22:09:14.662Z,9.67
2022-10-05T22:11:42.185Z,11.37
2022-10-05T22:14:10.489Z,7.10
2022-10-05T22:16:38.390Z,8.87
2022-10-05T22:19:05.884Z,5.30
2022-10-05T22:21:34.526Z,10.13
2022-10-05T22:24:01.749Z,7.70
2022-10-05T22:26:29.276Z,9.17
2022-10-05T22:28:56.818Z,6.23
2022-10-05T22:31:24.485Z,7.73
2022-10-05T22:33:51.908Z,10.48
2022-10-05T22:36:19.443Z,6.53
2022-10-05T22:38:47.313Z,7.70
2022-10-05T22:41:14.848Z,7.40
2022-10-05T22:43:43.150Z,4.30
2022-10-05T22:46:10.803Z,5.97
2022-10-05T22:48:38.259Z,6.47
2022-10-05T22:51:05.805Z,5.73
2022-10-05T22:53:34.126Z,12.13
2022-10-05T22:56:07.411Z,8.07
2022-10-05T22:58:34.936Z,12.33
2022-10-05T23:01:03.323Z,4.97
2022-10-05T23:03:30.792Z,7.30
2022-10-05T23:05:58.321Z,10.90
2022-10-05T23:08:26.999Z,12.23
2022-10-05T23:10:54.175Z,8.20
2022-10-05T23:13:21.712Z,8.13
2022-10-05T23:15:49.274Z,6.67
2022-10-05T23:18:17.586Z,5.13
2022-10-05T23:20:45.131Z,4.33
2022-10-05T23:23:12.696Z,5.13
2022-10-05T23:25:40.231Z,3.50
2022-10-05T23:28:08.596Z,5.40
2022-10-05T23:30:36.509Z,2.87
2022-10-05T23:33:03.928Z,1.07
2022-10-05T23:35:32.223Z,0.77
2022-10-05T23:37:59.765Z,3.40
2022-10-05T23:40:28.077Z,1.50
2022-10-05T23:42:55.613Z,3.30
2022-10-05T23:45:23.176Z,2.60
2022-10-05T23:47:50.712Z,2.50
2022-10-05T23:50:19.014Z,2.97
2022-10-05T23:52:46.569Z,2.77
2022-10-05T23:55:14.103Z,3.97
2022-10-05T23:57:42.397Z,3.43
